Terminal Aerodrome Forecast
Issued by NWS

Home | Current Version | Previous Version | Text Only | Print | Product List | Glossary On
Versions: 1 2 3 4 5 6 7 8 9 10 11 12 13 14
691
FTUS45 KTFX 241121
TAFGTF
TAF
KGTF 241121Z 2412/2512 VRB03KT P6SM SKC
     FM241700 19014G24KT P6SM BKN200
     FM250600 23010KT P6SM BKN090=

USA.gov is the U.S. government's official web portal to all federal, state and local government web resources and services.